createdAt,value
2019-02-04T00:00:51.118Z,-0.75
2019-02-04T00:01:51.093Z,-0.83
2019-02-04T00:02:51.081Z,-0.80
2019-02-04T00:03:51.059Z,-0.78
2019-02-04T00:04:51.030Z,-0.82
2019-02-04T00:05:51.019Z,-0.85
2019-02-04T00:06:50.996Z,-0.78
2019-02-04T00:07:50.979Z,-0.80
2019-02-04T00:08:50.958Z,-0.80
2019-02-04T00:09:50.939Z,-0.85
2019-02-04T00:10:50.918Z,-0.78
2019-02-04T00:11:50.898Z,-0.78
2019-02-04T00:12:50.881Z,-0.79
2019-02-04T00:13:50.860Z,-0.79
2019-02-04T00:14:50.850Z,-0.76
2019-02-04T00:15:50.816Z,-0.82
2019-02-04T00:16:50.800Z,-0.73
2019-02-04T00:17:50.780Z,-0.73
2019-02-04T00:18:50.763Z,-0.70
2019-02-04T00:19:50.739Z,-0.69
2019-02-04T00:20:50.725Z,-0.69
2019-02-04T00:21:50.698Z,-0.78
2019-02-04T00:22:50.679Z,-0.78
2019-02-04T00:23:50.666Z,-0.75
2019-02-04T00:24:50.642Z,-0.73
2019-02-04T00:25:50.622Z,-0.70
2019-02-04T00:26:51.873Z,-0.82
2019-02-04T00:27:50.581Z,-0.83
2019-02-04T00:28:50.574Z,-0.83
2019-02-04T00:29:50.540Z,-0.78
2019-02-04T00:30:50.519Z,-0.76
2019-02-04T00:31:50.504Z,-0.78
2019-02-04T00:32:50.485Z,-0.72
2019-02-04T00:33:50.460Z,-0.76
2019-02-04T00:34:50.441Z,-0.75
2019-02-04T00:35:50.424Z,-0.75
2019-02-04T00:36:50.405Z,-0.80
2019-02-04T00:37:50.388Z,-0.78
2019-02-04T00:38:50.380Z,-0.83
2019-02-04T00:39:50.343Z,-0.75
2019-02-04T00:40:50.324Z,-0.76
2019-02-04T00:41:50.307Z,-0.73
2019-02-04T00:42:50.284Z,-0.82
2019-02-04T00:43:50.272Z,-0.79
2019-02-04T00:44:50.246Z,-0.75
2019-02-04T00:45:50.226Z,-0.78
2019-02-04T00:46:52.150Z,-0.64
2019-02-04T00:47:50.188Z,-0.72
2019-02-04T00:48:50.166Z,-0.70
2019-02-04T00:49:50.175Z,-0.70
2019-02-04T00:50:50.127Z,-0.73
2019-02-04T00:51:50.108Z,-0.76
2019-02-04T00:52:50.092Z,-0.73
2019-02-04T00:53:50.065Z,-0.78
2019-02-04T00:54:50.047Z,-0.72
2019-02-04T00:55:50.031Z,-0.76
2019-02-04T00:56:50.009Z,-0.76
2019-02-04T00:57:49.985Z,-0.85
2019-02-04T00:58:49.967Z,-0.82
2019-02-04T00:59:49.952Z,-0.85
2019-02-04T01:00:49.930Z,-0.98
2019-02-04T01:01:49.910Z,-0.97
2019-02-04T01:02:49.892Z,-0.94
2019-02-04T01:03:49.870Z,-1.01
2019-02-04T01:04:49.858Z,-1.05
2019-02-04T01:05:49.837Z,-1.05
2019-02-04T01:06:49.810Z,-1.02
2019-02-04T01:07:49.789Z,-1.05
2019-02-04T01:08:49.776Z,-1.02
2019-02-04T01:09:49.756Z,-1.12
2019-02-04T01:10:49.734Z,-1.09
2019-02-04T01:11:49.720Z,-1.05
2019-02-04T01:12:49.685Z,-1.02
2019-02-04T01:13:49.674Z,-0.97
2019-02-04T01:14:49.655Z,-1.07
2019-02-04T01:15:49.638Z,-0.95
2019-02-04T01:16:49.610Z,-0.95
2019-02-04T01:17:49.592Z,-0.98
2019-02-04T01:18:49.573Z,-0.98
2019-02-04T01:19:49.550Z,-0.95
2019-02-04T01:20:49.530Z,-0.89
2019-02-04T01:21:49.514Z,-0.82
2019-02-04T01:22:49.497Z,-0.91
2019-02-04T01:23:49.479Z,-0.94
2019-02-04T01:24:49.451Z,-0.95
2019-02-04T01:25:49.435Z,-0.94
2019-02-04T01:26:49.413Z,-0.91
2019-02-04T01:27:49.396Z,-1.04
2019-02-04T01:28:49.378Z,-1.01
2019-02-04T01:29:49.360Z,-1.05
2019-02-04T01:30:49.338Z,-0.99
2019-02-04T01:31:49.324Z,-1.01
2019-02-04T01:32:49.298Z,-1.01
2019-02-04T01:33:49.278Z,-0.99
2019-02-04T01:34:49.263Z,-1.05
2019-02-04T01:35:49.237Z,-1.10
2019-02-04T01:36:49.217Z,-1.09
2019-02-04T01:37:49.197Z,-1.02
2019-02-04T01:38:49.179Z,-0.97
2019-02-04T01:39:49.156Z,-1.04
2019-02-04T01:40:49.136Z,-1.01
2019-02-04T01:41:49.118Z,-0.99
2019-02-04T01:42:49.098Z,-1.04
2019-02-04T01:43:49.076Z,-1.02
2019-02-04T01:44:49.058Z,-0.92
2019-02-04T01:45:49.041Z,-0.97
2019-02-04T01:46:51.516Z,-0.95
2019-02-04T01:47:48.996Z,-0.94
2019-02-04T01:48:48.977Z,-0.94
2019-02-04T01:49:48.960Z,-0.98
2019-02-04T01:50:48.942Z,-1.02
2019-02-04T01:51:48.920Z,-1.01
2019-02-04T01:52:48.901Z,-1.02
2019-02-04T01:53:48.883Z,-1.22
2019-02-04T01:54:48.861Z,-1.17
2019-02-04T01:55:48.844Z,-1.20
2019-02-04T01:56:48.824Z,-1.34
2019-02-04T01:57:48.803Z,-1.33
2019-02-04T01:58:48.786Z,-1.33
2019-02-04T01:59:48.762Z,-1.33
2019-02-04T02:00:48.742Z,-1.40
2019-02-04T02:01:48.717Z,-1.46
2019-02-04T02:02:48.703Z,-1.46
2019-02-04T02:03:48.684Z,-1.41
2019-02-04T02:04:48.659Z,-1.52
2019-02-04T02:05:48.643Z,-1.51
2019-02-04T02:06:48.648Z,-1.49
2019-02-04T02:07:48.604Z,-1.45
2019-02-04T02:08:48.585Z,-1.52
2019-02-04T02:09:48.562Z,-1.41
2019-02-04T02:10:48.540Z,-1.34
2019-02-04T02:11:48.521Z,-1.48
2019-02-04T02:12:48.503Z,-1.41
2019-02-04T02:13:48.483Z,-1.33
2019-02-04T02:14:48.457Z,-1.37
2019-02-04T02:15:48.440Z,-1.34
2019-02-04T02:16:48.421Z,-1.33
2019-02-04T02:17:48.408Z,-1.34
2019-02-04T02:18:48.385Z,-1.35
2019-02-04T02:19:48.358Z,-1.25
2019-02-04T02:20:48.341Z,-1.25
2019-02-04T02:21:48.327Z,-1.33
2019-02-04T02:22:48.302Z,-1.20
2019-02-04T02:23:48.282Z,-1.19
2019-02-04T02:24:48.264Z,-1.20
2019-02-04T02:25:48.243Z,-1.20
2019-02-04T02:26:48.226Z,-1.13
2019-02-04T02:27:48.200Z,-1.13
2019-02-04T02:28:48.182Z,-1.10
2019-02-04T02:29:48.155Z,-1.02
2019-02-04T02:30:48.140Z,-1.07
2019-02-04T02:31:48.117Z,-1.10
2019-02-04T02:32:48.124Z,-1.04
2019-02-04T02:33:48.080Z,-1.15
2019-02-04T02:34:48.082Z,-1.10
2019-02-04T02:35:48.061Z,-1.13
2019-02-04T02:36:48.025Z,-1.23
2019-02-04T02:37:48.000Z,-1.20
2019-02-04T02:38:47.983Z,-1.23
2019-02-04T02:39:47.964Z,-1.25
2019-02-04T02:40:47.942Z,-1.15
2019-02-04T02:41:47.917Z,-1.23
2019-02-04T02:42:47.897Z,-1.10
2019-02-04T02:43:47.879Z,-1.23
2019-02-04T02:44:47.854Z,-1.10
2019-02-04T02:45:47.838Z,-1.15
2019-02-04T02:46:47.817Z,-1.22
2019-02-04T02:47:47.802Z,-1.16
2019-02-04T02:48:47.778Z,-1.15
2019-02-04T02:49:47.758Z,-1.19
2019-02-04T02:50:47.738Z,-1.19
2019-02-04T02:51:47.719Z,-1.25
2019-02-04T02:52:47.701Z,-1.19
2019-02-04T02:53:47.683Z,-1.19
2019-02-04T02:54:47.661Z,-1.17
2019-02-04T02:55:47.638Z,-1.22
2019-02-04T02:56:47.624Z,-1.35
2019-02-04T02:57:47.653Z,-1.28
2019-02-04T02:58:47.579Z,-1.31
2019-02-04T02:59:47.552Z,-1.33
2019-02-04T03:00:47.542Z,-1.31
2019-02-04T03:01:47.519Z,-1.33
2019-02-04T03:02:47.510Z,-1.37
2019-02-04T03:03:47.482Z,-1.37
2019-02-04T03:04:47.463Z,-1.43
2019-02-04T03:05:47.438Z,-1.43
2019-02-04T03:06:47.423Z,-1.38
2019-02-04T03:07:47.399Z,-1.41
2019-02-04T03:08:47.381Z,-1.52
2019-02-04T03:09:47.362Z,-1.46
2019-02-04T03:10:47.343Z,-1.38
2019-02-04T03:11:47.322Z,-1.41
2019-02-04T03:12:47.298Z,-1.30
2019-02-04T03:13:47.283Z,-1.30
2019-02-04T03:14:47.268Z,-1.31
2019-02-04T03:15:47.253Z,-1.38
2019-02-04T03:16:47.216Z,-1.41
2019-02-04T03:17:52.174Z,-1.46
2019-02-04T03:18:47.181Z,-1.38
2019-02-04T03:19:47.157Z,-1.40
2019-02-04T03:20:47.235Z,-1.45
2019-02-04T03:21:47.121Z,-1.41
2019-02-04T03:22:47.100Z,-1.31
2019-02-04T03:23:47.083Z,-1.41
2019-02-04T03:24:47.064Z,-1.40
2019-02-04T03:25:47.036Z,-1.45
2019-02-04T03:26:47.022Z,-1.45
2019-02-04T03:27:46.999Z,-1.45
2019-02-04T03:28:46.983Z,-1.52
2019-02-04T03:29:46.955Z,-1.38
2019-02-04T03:30:46.944Z,-1.48
2019-02-04T03:31:46.926Z,-1.48
2019-02-04T03:32:46.966Z,-1.45
2019-02-04T03:33:46.876Z,-1.37
2019-02-04T03:34:46.863Z,-1.31
2019-02-04T03:35:46.836Z,-1.35
2019-02-04T03:36:46.823Z,-1.30
2019-02-04T03:37:46.796Z,-1.30
2019-02-04T03:38:46.777Z,-1.28
2019-02-04T03:39:46.753Z,-1.25
2019-02-04T03:40:46.732Z,-1.28
2019-02-04T03:41:46.715Z,-1.30
2019-02-04T03:42:46.698Z,-1.25
2019-02-04T03:43:46.674Z,-1.31
2019-02-04T03:44:46.655Z,-1.33
2019-02-04T03:45:46.637Z,-1.28
2019-02-04T03:46:46.621Z,-1.33
2019-02-04T03:47:46.597Z,-1.30
2019-02-04T03:48:46.577Z,-1.20
2019-02-04T03:49:46.556Z,-1.20
2019-02-04T03:50:46.541Z,-1.17
2019-02-04T03:51:46.513Z,-1.20
2019-02-04T03:52:46.498Z,-1.34
2019-02-04T03:53:46.476Z,-1.22
2019-02-04T03:54:46.456Z,-1.23
2019-02-04T03:55:46.445Z,-1.19
2019-02-04T03:56:46.418Z,-1.20
2019-02-04T03:57:46.397Z,-1.23
2019-02-04T03:58:46.376Z,-1.17
2019-02-04T03:59:46.355Z,-1.30
2019-02-04T04:00:46.337Z,-1.46
2019-02-04T04:01:46.320Z,-1.61
2019-02-04T04:02:46.294Z,-1.67
2019-02-04T04:03:46.276Z,-1.77
2019-02-04T04:04:46.256Z,-1.77
2019-02-04T04:05:46.236Z,-1.77
2019-02-04T04:06:46.214Z,-1.82
2019-02-04T04:07:46.302Z,-1.79
2019-02-04T04:08:46.174Z,-1.70
2019-02-04T04:09:46.155Z,-1.77
2019-02-04T04:10:46.135Z,-1.62
2019-02-04T04:11:46.114Z,-1.61
2019-02-04T04:12:46.098Z,-1.55
2019-02-04T04:13:46.072Z,-1.58
2019-02-04T04:14:46.050Z,-1.48
2019-02-04T04:15:46.036Z,-1.45
2019-02-04T04:16:46.014Z,-1.43
2019-02-04T04:17:45.995Z,-1.31
2019-02-04T04:18:45.993Z,-1.34
2019-02-04T04:19:45.960Z,-1.33
2019-02-04T04:20:45.934Z,-1.30
2019-02-04T04:21:45.907Z,-1.28
2019-02-04T04:22:45.892Z,-1.28
2019-02-04T04:23:45.873Z,-1.15
2019-02-04T04:24:45.848Z,-1.25
2019-02-04T04:25:45.830Z,-1.28
2019-02-04T04:26:45.811Z,-1.31
2019-02-04T04:27:45.795Z,-1.28
2019-02-04T04:28:45.774Z,-1.30
2019-02-04T04:29:45.754Z,-1.22
2019-02-04T04:30:45.732Z,-1.23
2019-02-04T04:31:45.716Z,-1.23
2019-02-04T04:32:45.689Z,-1.16
2019-02-04T04:33:45.677Z,-1.23
2019-02-04T04:34:45.652Z,-1.16
2019-02-04T04:35:45.643Z,-1.28
2019-02-04T04:36:45.613Z,-1.09
2019-02-04T04:37:45.594Z,-1.15
2019-02-04T04:38:45.570Z,-1.30
2019-02-04T04:39:45.552Z,-1.13
2019-02-04T04:40:45.530Z,-1.23
2019-02-04T04:41:45.514Z,-1.25
2019-02-04T04:42:45.488Z,-1.17
2019-02-04T04:43:45.470Z,-1.20
2019-02-04T04:44:45.452Z,-1.19
2019-02-04T04:45:45.432Z,-1.31
2019-02-04T04:46:45.415Z,-1.17
2019-02-04T04:47:45.391Z,-1.27
2019-02-04T04:48:45.371Z,-1.20
2019-02-04T04:49:45.349Z,-1.37
2019-02-04T04:50:45.327Z,-1.40
2019-02-04T04:51:45.312Z,-1.51
2019-02-04T04:52:45.294Z,-1.46
2019-02-04T04:53:45.280Z,-1.58
2019-02-04T04:54:45.254Z,-1.55
2019-02-04T04:55:45.232Z,-1.55
2019-02-04T04:56:45.215Z,-1.54
2019-02-04T04:57:45.184Z,-1.67
2019-02-04T04:58:45.173Z,-1.73
2019-02-04T04:59:45.143Z,-1.76
2019-02-04T05:00:45.127Z,-1.79
2019-02-04T05:01:45.108Z,-1.90
2019-02-04T05:02:45.089Z,-1.80
2019-02-04T05:03:45.071Z,-1.87
2019-02-04T05:04:45.049Z,-1.80
2019-02-04T05:05:45.027Z,-1.80
2019-02-04T05:06:45.007Z,-1.79
2019-02-04T05:07:44.986Z,-1.80
2019-02-04T05:08:44.970Z,-1.80
2019-02-04T05:09:44.946Z,-1.85
2019-02-04T05:10:44.928Z,-1.91
2019-02-04T05:11:44.914Z,-1.80
2019-02-04T05:12:44.885Z,-1.74
2019-02-04T05:13:44.873Z,-1.74
2019-02-04T05:14:44.847Z,-1.77
2019-02-04T05:15:44.828Z,-1.79
2019-02-04T05:16:44.806Z,-1.91
2019-02-04T05:17:44.785Z,-1.79
2019-02-04T05:18:44.761Z,-1.84
2019-02-04T05:19:44.746Z,-1.87
2019-02-04T05:20:44.721Z,-1.84
2019-02-04T05:21:44.709Z,-1.76
2019-02-04T05:22:44.681Z,-1.77
2019-02-04T05:23:44.669Z,-1.80
2019-02-04T05:24:44.640Z,-1.88
2019-02-04T05:25:44.625Z,-1.82
2019-02-04T05:26:44.603Z,-1.73
2019-02-04T05:27:44.581Z,-1.73
2019-02-04T05:28:44.562Z,-1.67
2019-02-04T05:29:44.546Z,-1.74
2019-02-04T05:30:44.516Z,-1.69
2019-02-04T05:31:44.503Z,-1.62
2019-02-04T05:32:44.479Z,-1.72
2019-02-04T05:33:44.460Z,-1.66
2019-02-04T05:34:44.437Z,-1.64
2019-02-04T05:35:44.424Z,-1.66
2019-02-04T05:36:44.397Z,-1.59
2019-02-04T05:37:44.380Z,-1.55
2019-02-04T05:38:44.355Z,-1.62
2019-02-04T05:39:44.340Z,-1.55
2019-02-04T05:40:44.318Z,-1.56
2019-02-04T05:41:44.310Z,-1.59
2019-02-04T05:42:44.282Z,-1.61
2019-02-04T05:43:44.260Z,-1.54
2019-02-04T05:44:44.234Z,-1.61
2019-02-04T05:45:44.211Z,-1.73
2019-02-04T05:46:44.196Z,-1.66
2019-02-04T05:47:44.175Z,-1.70
2019-02-04T05:48:49.530Z,-1.69
2019-02-04T05:49:44.133Z,-1.74
2019-02-04T05:50:44.119Z,-1.69
2019-02-04T05:51:44.098Z,-1.79
2019-02-04T05:52:44.084Z,-1.87
2019-02-04T05:53:44.094Z,-1.95
2019-02-04T05:54:44.042Z,-1.90
2019-02-04T05:55:44.009Z,-1.95
2019-02-04T05:56:43.993Z,-2.09
2019-02-04T05:57:43.976Z,-2.12
2019-02-04T05:58:43.951Z,-2.15
2019-02-04T05:59:43.929Z,-2.18
2019-02-04T06:00:43.914Z,-2.16
2019-02-04T06:01:43.890Z,-2.13
2019-02-04T06:02:43.875Z,-2.18
2019-02-04T06:03:43.852Z,-2.26
2019-02-04T06:04:43.836Z,-2.37
2019-02-04T06:05:43.810Z,-2.52
2019-02-04T06:06:43.790Z,-2.48
2019-02-04T06:07:43.770Z,-2.50
2019-02-04T06:08:43.746Z,-2.49
2019-02-04T06:09:43.728Z,-2.53
2019-02-04T06:10:43.710Z,-2.61
2019-02-04T06:11:43.688Z,-2.50
2019-02-04T06:12:43.665Z,-2.60
2019-02-04T06:13:43.647Z,-2.58
2019-02-04T06:14:43.621Z,-2.53
2019-02-04T06:15:43.605Z,-2.46
2019-02-04T06:16:43.585Z,-2.42
2019-02-04T06:17:43.561Z,-2.37
2019-02-04T06:18:43.548Z,-2.29
2019-02-04T06:19:43.525Z,-2.24
2019-02-04T06:20:43.502Z,-2.34
2019-02-04T06:21:43.482Z,-2.45
2019-02-04T06:22:43.473Z,-2.58
2019-02-04T06:23:43.442Z,-2.56
2019-02-04T06:24:43.420Z,-2.68
2019-02-04T06:25:43.402Z,-2.64
2019-02-04T06:26:43.380Z,-2.64
2019-02-04T06:27:43.373Z,-2.70
2019-02-04T06:28:43.339Z,-2.70
2019-02-04T06:29:43.318Z,-2.64
2019-02-04T06:30:43.293Z,-2.60
2019-02-04T06:31:43.276Z,-2.50
2019-02-04T06:32:43.257Z,-2.53
2019-02-04T06:33:43.237Z,-2.45
2019-02-04T06:34:43.212Z,-2.43
2019-02-04T06:35:43.194Z,-2.39
2019-02-04T06:36:43.172Z,-2.32
2019-02-04T06:37:43.152Z,-2.35
2019-02-04T06:38:43.131Z,-2.32
2019-02-04T06:39:43.111Z,-2.20
2019-02-04T06:40:43.093Z,-2.26
2019-02-04T06:41:43.068Z,-2.21
2019-02-04T06:42:43.050Z,-2.26
2019-02-04T06:43:43.031Z,-2.20
2019-02-04T06:44:43.005Z,-2.20
2019-02-04T06:45:45.838Z,-2.20
2019-02-04T06:46:42.965Z,-2.24
2019-02-04T06:47:42.947Z,-2.26
2019-02-04T06:48:42.929Z,-2.27
2019-02-04T06:49:42.901Z,-2.34
2019-02-04T06:50:42.877Z,-2.40
2019-02-04T06:51:42.861Z,-2.43
2019-02-04T06:52:42.836Z,-2.43
2019-02-04T06:53:42.824Z,-2.45
2019-02-04T06:54:42.802Z,-2.56
2019-02-04T06:55:42.780Z,-2.55
2019-02-04T06:56:42.756Z,-2.52
2019-02-04T06:57:42.843Z,-2.58
2019-02-04T06:58:42.718Z,-2.67
2019-02-04T06:59:42.695Z,-2.56
2019-02-04T07:00:42.673Z,-2.66
2019-02-04T07:01:42.656Z,-2.64
2019-02-04T07:02:42.642Z,-2.64
2019-02-04T07:03:42.607Z,-2.64
2019-02-04T07:04:42.595Z,-2.63
2019-02-04T07:05:44.106Z,-2.55
2019-02-04T07:06:42.550Z,-2.60
2019-02-04T07:07:42.530Z,-2.53
2019-02-04T07:08:42.508Z,-2.50
2019-02-04T07:09:42.488Z,-2.50
2019-02-04T07:10:42.461Z,-2.52
2019-02-04T07:11:42.451Z,-2.52
2019-02-04T07:12:42.421Z,-2.53
2019-02-04T07:13:42.780Z,-2.50
2019-02-04T07:14:42.385Z,-2.55
2019-02-04T07:15:42.363Z,-2.61
2019-02-04T07:16:42.336Z,-2.70
2019-02-04T07:17:42.322Z,-2.60
2019-02-04T07:18:42.300Z,-2.64
2019-02-04T07:19:42.280Z,-2.68
2019-02-04T07:20:42.255Z,-2.66
2019-02-04T07:21:42.237Z,-2.66
2019-02-04T07:22:42.214Z,-2.63
2019-02-04T07:23:42.198Z,-2.61
2019-02-04T07:24:43.187Z,-2.55
2019-02-04T07:25:42.158Z,-2.55
2019-02-04T07:26:42.132Z,-2.77
2019-02-04T07:27:42.109Z,-2.82
2019-02-04T07:28:42.091Z,-2.94
2019-02-04T07:29:42.065Z,-2.96
2019-02-04T07:30:42.051Z,-3.05
2019-02-04T07:31:42.028Z,-3.06
2019-02-04T07:32:42.010Z,-3.05
2019-02-04T07:33:41.986Z,-3.14
2019-02-04T07:34:41.966Z,-3.20
2019-02-04T07:35:41.945Z,-3.25
2019-02-04T07:36:41.930Z,-3.18
2019-02-04T07:37:41.902Z,-3.18
2019-02-04T07:38:41.886Z,-3.18
2019-02-04T07:39:41.863Z,-3.31
2019-02-04T07:40:41.839Z,-3.33
2019-02-04T07:41:41.818Z,-3.33
2019-02-04T07:42:41.795Z,-3.31
2019-02-04T07:43:41.773Z,-3.33
2019-02-04T07:44:41.754Z,-3.38
2019-02-04T07:45:41.729Z,-3.38
2019-02-04T07:46:41.709Z,-3.41
2019-02-04T07:47:41.688Z,-3.24
2019-02-04T07:48:41.666Z,-3.41
2019-02-04T07:49:41.648Z,-3.33
2019-02-04T07:50:41.628Z,-3.31
2019-02-04T07:51:41.602Z,-3.31
2019-02-04T07:52:41.584Z,-3.30
2019-02-04T07:53:41.564Z,-3.28
2019-02-04T07:54:41.540Z,-3.35
2019-02-04T07:55:41.519Z,-3.24
2019-02-04T07:56:41.496Z,-3.25
2019-02-04T07:57:41.471Z,-3.27
2019-02-04T07:58:41.451Z,-3.33
2019-02-04T07:59:41.432Z,-3.20
2019-02-04T08:00:41.413Z,-3.20
2019-02-04T08:01:41.518Z,-3.15
2019-02-04T08:02:41.366Z,-3.21
2019-02-04T08:03:41.353Z,-3.14
2019-02-04T08:04:41.325Z,-3.06
2019-02-04T08:05:41.315Z,-2.99
2019-02-04T08:06:41.285Z,-2.86
2019-02-04T08:07:41.263Z,-2.89
2019-02-04T08:08:41.248Z,-2.79
2019-02-04T08:09:41.220Z,-2.79
2019-02-04T08:10:41.196Z,-2.66
2019-02-04T08:11:41.171Z,-2.53
2019-02-04T08:12:41.155Z,-2.39
2019-02-04T08:13:41.134Z,-2.10
2019-02-04T08:14:41.114Z,-2.08
2019-02-04T08:15:41.091Z,-1.74
2019-02-04T08:16:41.066Z,-1.55
2019-02-04T08:17:41.050Z,-1.48
2019-02-04T08:18:41.029Z,-1.40
2019-02-04T08:19:46.988Z,-1.30
2019-02-04T08:20:40.983Z,-1.19
2019-02-04T08:21:40.964Z,-1.23
2019-02-04T08:22:40.943Z,-0.99
2019-02-04T08:23:40.929Z,-1.02
2019-02-04T08:24:40.899Z,-0.89
2019-02-04T08:25:40.880Z,-0.85
2019-02-04T08:26:40.927Z,-0.78
2019-02-04T08:27:40.840Z,-0.69
2019-02-04T08:28:40.820Z,-0.57
2019-02-04T08:29:40.800Z,-0.47
2019-02-04T08:30:40.786Z,-0.43
2019-02-04T08:31:40.755Z,-0.34
2019-02-04T08:32:40.734Z,-0.31
2019-02-04T08:33:40.709Z,-0.15
2019-02-04T08:34:40.692Z,-0.10
2019-02-04T08:35:40.674Z,-0.05
2019-02-04T08:36:44.317Z,0.07
2019-02-04T08:37:40.638Z,0.10
2019-02-04T08:38:40.617Z,0.18
2019-02-04T08:39:40.599Z,0.31
2019-02-04T08:40:40.574Z,0.36
2019-02-04T08:41:40.556Z,0.42
2019-02-04T08:42:40.540Z,0.51
2019-02-04T08:43:40.517Z,0.57
2019-02-04T08:44:40.487Z,0.58
2019-02-04T08:45:40.473Z,0.75
2019-02-04T08:46:40.459Z,0.94
2019-02-04T08:47:40.438Z,1.05
2019-02-04T08:48:40.439Z,1.18
2019-02-04T08:49:40.399Z,1.14
2019-02-04T08:50:40.379Z,0.98
2019-02-04T08:51:40.366Z,1.08
2019-02-04T08:52:40.336Z,1.15
2019-02-04T08:53:40.324Z,1.06
2019-02-04T08:54:40.306Z,1.15
2019-02-04T08:55:40.280Z,1.29
2019-02-04T08:56:42.951Z,1.36
2019-02-04T08:57:40.249Z,1.47
2019-02-04T08:58:40.227Z,1.59
2019-02-04T08:59:40.205Z,1.42
2019-02-04T09:00:40.186Z,1.04
2019-02-04T09:01:40.166Z,0.61
2019-02-04T09:02:40.156Z,0.24
2019-02-04T09:03:40.133Z,0.15
2019-02-04T09:04:40.118Z,-0.01
2019-02-04T09:05:40.096Z,-0.19
2019-02-04T09:06:40.071Z,-0.14
2019-02-04T09:07:40.062Z,-0.11
2019-02-04T09:08:40.035Z,-0.01
2019-02-04T09:09:40.015Z,0.13
2019-02-04T09:10:40.001Z,0.31
2019-02-04T09:11:39.983Z,0.24
2019-02-04T09:12:39.967Z,0.42
2019-02-04T09:13:39.943Z,0.53
2019-02-04T09:14:39.931Z,0.72
2019-02-04T09:15:39.936Z,0.84
2019-02-04T09:16:39.887Z,1.02
2019-02-04T09:17:39.871Z,1.16
2019-02-04T09:18:44.941Z,1.33
2019-02-04T09:19:39.832Z,1.48
2019-02-04T09:20:39.813Z,1.70
2019-02-04T09:21:39.798Z,1.86
2019-02-04T09:22:39.777Z,1.77
2019-02-04T09:23:39.751Z,1.83
2019-02-04T09:24:39.743Z,1.60
2019-02-04T09:25:39.721Z,1.37
2019-02-04T09:26:39.707Z,1.41
2019-02-04T09:27:39.683Z,1.41
2019-02-04T09:28:39.669Z,1.60
2019-02-04T09:29:39.651Z,1.55
2019-02-04T09:30:39.628Z,1.66
2019-02-04T09:31:39.614Z,1.80
2019-02-04T09:32:39.596Z,2.05
2019-02-04T09:33:39.580Z,2.16
2019-02-04T09:34:39.557Z,2.10
2019-02-04T09:35:39.549Z,1.69
2019-02-04T09:36:39.522Z,1.42
2019-02-04T09:37:39.509Z,0.80
2019-02-04T09:38:39.484Z,0.44
2019-02-04T09:39:39.465Z,0.28
2019-02-04T09:40:39.447Z,0.39
2019-02-04T09:41:39.429Z,0.55
2019-02-04T09:42:39.419Z,0.90
2019-02-04T09:43:39.392Z,0.84
2019-02-04T09:44:39.385Z,1.00
2019-02-04T09:45:39.361Z,1.08
2019-02-04T09:46:39.339Z,1.23
2019-02-04T09:47:39.320Z,1.23
2019-02-04T09:48:39.303Z,1.27
2019-02-04T09:49:39.285Z,1.42
2019-02-04T09:50:39.264Z,1.63
2019-02-04T09:51:39.248Z,1.73
2019-02-04T09:52:39.238Z,1.69
2019-02-04T09:53:39.208Z,1.63
2019-02-04T09:54:39.192Z,1.81
2019-02-04T09:55:39.292Z,1.88
2019-02-04T09:56:39.159Z,2.10
2019-02-04T09:57:39.141Z,2.43
2019-02-04T09:58:39.118Z,2.61
2019-02-04T09:59:39.108Z,2.97
2019-02-04T10:00:39.088Z,3.05
2019-02-04T10:01:39.071Z,3.10
2019-02-04T10:02:39.054Z,2.57
2019-02-04T10:03:39.041Z,2.48
2019-02-04T10:04:39.018Z,2.24
2019-02-04T10:05:38.998Z,1.87
2019-02-04T10:06:38.981Z,1.69
2019-02-04T10:07:38.967Z,1.60
2019-02-04T10:08:38.955Z,1.86
2019-02-04T10:09:38.927Z,2.21
2019-02-04T10:10:38.918Z,2.52
2019-02-04T10:11:38.898Z,2.79
2019-02-04T10:12:38.882Z,3.24
2019-02-04T10:13:38.864Z,3.58
2019-02-04T10:14:38.846Z,3.94
2019-02-04T10:15:38.827Z,4.27
2019-02-04T10:16:38.814Z,4.52
2019-02-04T10:17:38.793Z,4.84
2019-02-04T10:18:38.794Z,4.97
2019-02-04T10:19:38.790Z,5.28
2019-02-04T10:20:38.761Z,5.28
2019-02-04T10:21:38.732Z,5.33
2019-02-04T10:22:38.708Z,5.43
2019-02-04T10:23:38.739Z,5.36
2019-02-04T10:24:38.685Z,5.35
2019-02-04T10:25:38.679Z,5.17
2019-02-04T10:26:38.772Z,5.31
2019-02-04T10:27:38.644Z,5.30
2019-02-04T10:28:38.648Z,5.24
2019-02-04T10:29:38.608Z,5.00
2019-02-04T10:30:38.620Z,4.51
2019-02-04T10:31:38.603Z,4.45
2019-02-04T10:32:38.550Z,4.73
2019-02-04T10:33:38.559Z,4.91
2019-02-04T10:34:38.551Z,5.33
2019-02-04T10:35:38.500Z,5.46
2019-02-04T10:36:38.489Z,5.63
2019-02-04T10:37:38.468Z,5.57
2019-02-04T10:38:38.460Z,5.78
2019-02-04T10:39:38.448Z,5.60
2019-02-04T10:40:38.424Z,5.58
2019-02-04T10:41:38.402Z,5.40
2019-02-04T10:42:38.391Z,5.30
2019-02-04T10:43:38.378Z,5.43
2019-02-04T10:44:38.378Z,5.53
2019-02-04T10:45:38.345Z,5.57
2019-02-04T10:46:38.345Z,5.20
2019-02-04T10:47:38.334Z,5.31
2019-02-04T10:48:38.291Z,5.30
2019-02-04T10:49:38.301Z,5.61
2019-02-04T10:50:45.792Z,5.78
2019-02-04T10:51:38.246Z,6.01
2019-02-04T10:52:38.263Z,6.19
2019-02-04T10:53:38.217Z,6.18
2019-02-04T10:54:38.201Z,6.41
2019-02-04T10:55:38.190Z,6.55
2019-02-04T10:56:38.196Z,6.76
2019-02-04T10:57:40.632Z,6.97
2019-02-04T10:58:38.138Z,7.07
2019-02-04T10:59:38.144Z,7.28
2019-02-04T11:00:38.146Z,7.63
2019-02-04T11:01:38.124Z,7.83
2019-02-04T11:02:38.076Z,7.97
2019-02-04T11:03:38.065Z,8.18
2019-02-04T11:04:38.049Z,8.25
2019-02-04T11:05:38.059Z,8.36
2019-02-04T11:06:38.040Z,8.48
2019-02-04T11:07:38.017Z,8.63
2019-02-04T11:08:37.988Z,8.79
2019-02-04T11:09:37.992Z,8.81
2019-02-04T11:10:38.003Z,8.84
2019-02-04T11:11:37.946Z,8.89
2019-02-04T11:12:37.929Z,8.73
2019-02-04T11:13:37.917Z,8.53
2019-02-04T11:14:37.930Z,8.66
2019-02-04T11:15:37.902Z,8.84
2019-02-04T11:16:37.871Z,8.87
2019-02-04T11:17:37.860Z,9.02
2019-02-04T11:18:37.866Z,9.14
2019-02-04T11:19:37.844Z,9.15
2019-02-04T11:20:37.816Z,9.05
2019-02-04T11:21:37.848Z,8.96
2019-02-04T11:22:37.899Z,8.92
2019-02-04T11:23:37.784Z,8.74
2019-02-04T11:24:37.759Z,8.68
2019-02-04T11:25:37.747Z,8.56
2019-02-04T11:26:37.731Z,8.73
2019-02-04T11:27:37.717Z,8.91
2019-02-04T11:28:37.717Z,8.95
2019-02-04T11:29:37.719Z,8.98
2019-02-04T11:30:37.678Z,8.98
2019-02-04T11:31:37.678Z,9.08
2019-02-04T11:32:37.650Z,9.38
2019-02-04T11:33:37.712Z,9.53
2019-02-04T11:34:37.623Z,9.81
2019-02-04T11:35:37.672Z,9.89
2019-02-04T11:36:37.753Z,10.07
2019-02-04T11:37:37.632Z,10.15
2019-02-04T11:38:37.606Z,10.22
2019-02-04T11:39:37.562Z,10.02
2019-02-04T11:40:37.546Z,9.93
2019-02-04T11:41:37.554Z,9.90
2019-02-04T11:42:37.518Z,9.53
2019-02-04T11:43:37.498Z,9.40
2019-02-04T11:44:37.529Z,9.21
2019-02-04T11:45:37.492Z,9.14
2019-02-04T11:46:37.458Z,8.98
2019-02-04T11:47:37.445Z,8.92
2019-02-04T11:48:37.437Z,8.89
2019-02-04T11:49:37.417Z,8.68
2019-02-04T11:50:37.411Z,8.34
2019-02-04T11:51:37.402Z,8.30
2019-02-04T11:52:37.379Z,8.50
2019-02-04T11:53:37.372Z,8.74
2019-02-04T11:54:37.353Z,8.94
2019-02-04T11:55:37.344Z,9.10
2019-02-04T11:56:37.329Z,9.40
2019-02-04T11:57:37.319Z,9.42
2019-02-04T11:58:37.297Z,9.43
2019-02-04T11:59:37.291Z,9.53
2019-02-04T12:00:37.280Z,9.51
2019-02-04T12:01:37.264Z,9.56
2019-02-04T12:02:37.254Z,9.65
2019-02-04T12:03:37.237Z,9.58
2019-02-04T12:04:37.225Z,9.42
2019-02-04T12:05:37.206Z,9.08
2019-02-04T12:06:37.202Z,8.92
2019-02-04T12:07:37.185Z,8.89
2019-02-04T12:08:37.174Z,8.89
2019-02-04T12:09:37.161Z,8.95
2019-02-04T12:10:37.149Z,9.23
2019-02-04T12:11:37.136Z,9.28
2019-02-04T12:12:37.214Z,9.64
2019-02-04T12:13:37.113Z,9.83
2019-02-04T12:14:37.099Z,9.86
2019-02-04T12:15:37.088Z,10.01
2019-02-04T12:16:37.066Z,10.05
2019-02-04T12:17:37.058Z,9.91
2019-02-04T12:18:37.039Z,9.83
2019-02-04T12:19:37.039Z,9.50
2019-02-04T12:20:39.799Z,9.60
2019-02-04T12:21:37.008Z,9.54
2019-02-04T12:22:36.995Z,9.69
2019-02-04T12:23:36.983Z,9.90
2019-02-04T12:24:36.971Z,10.01
2019-02-04T12:25:36.962Z,10.20
2019-02-04T12:26:36.944Z,10.36
2019-02-04T12:27:36.936Z,10.59
2019-02-04T12:28:36.924Z,10.63
2019-02-04T12:29:36.910Z,10.71
2019-02-04T12:30:36.897Z,10.85
2019-02-04T12:31:36.887Z,11.10
2019-02-04T12:32:36.870Z,11.17
2019-02-04T12:33:36.864Z,11.35
2019-02-04T12:34:36.859Z,11.40
2019-02-04T12:35:36.833Z,11.44
2019-02-04T12:36:36.995Z,11.57
2019-02-04T12:37:36.811Z,11.72
2019-02-04T12:38:36.802Z,11.79
2019-02-04T12:39:36.789Z,11.98
2019-02-04T12:40:36.771Z,12.16
2019-02-04T12:41:36.763Z,12.27
2019-02-04T12:42:36.746Z,12.14
2019-02-04T12:43:36.738Z,11.94
2019-02-04T12:44:36.729Z,11.65
2019-02-04T12:45:36.713Z,11.54
2019-02-04T12:46:36.704Z,11.40
2019-02-04T12:47:36.692Z,11.42
2019-02-04T12:48:36.682Z,11.18
2019-02-04T12:49:36.672Z,10.86
2019-02-04T12:50:36.659Z,10.66
2019-02-04T12:51:36.641Z,10.48
2019-02-04T12:52:36.630Z,10.59
2019-02-04T12:53:36.614Z,10.68
2019-02-04T12:54:36.605Z,11.04
2019-02-04T12:55:36.599Z,11.40
2019-02-04T12:56:36.584Z,11.55
2019-02-04T12:57:36.575Z,11.76
2019-02-04T12:58:36.562Z,11.95
2019-02-04T12:59:36.546Z,12.12